Time;durP1;ratioP1;P1;durP2;ratioP2;P2;SDS_P1;SDS_P2;PMS_P1;PMS_P2;Temp;Humidity;BMP_temperature;BMP_pressure;BME280_temperature;BME280_humidity;BME280_pressure;Samples;Min_cycle;Max_cycle;Signal;HPM_P1;HPM_P2
2023/01/29 00:01:09;;;;;;;2.97;1.60;;;22.10;50.50;;;;;;5018464;28;20053;-67
2023/01/29 00:03:34;;;;;;;2.60;1.50;;;22.10;50.50;;;;;;5017856;28;20033;-65
2023/01/29 00:06:05;;;;;;;2.50;1.50;;;22.10;50.50;;;;;;5022179;28;20032;-66
2023/01/29 00:08:36;;;;;;;2.38;1.55;;;22.10;50.40;;;;;;5018043;28;20549;-66
2023/01/29 00:11:05;;;;;;;2.38;1.50;;;22.10;50.40;;;;;;5018692;28;20175;-67
2023/01/29 00:13:33;;;;;;;2.63;1.60;;;22.10;50.40;;;;;;5018845;28;20022;-67
2023/01/29 00:15:59;;;;;;;2.10;1.30;;;22.10;50.40;;;;;;5020286;28;20381;-68
2023/01/29 00:18:26;;;;;;;2.30;1.60;;;22.10;50.30;;;;;;5020421;28;20107;-67
2023/01/29 00:20:52;;;;;;;2.63;1.70;;;22.10;50.30;;;;;;5021590;28;20030;-67
2023/01/29 00:23:18;;;;;;;2.80;1.55;;;22.00;50.20;;;;;;5018148;28;20030;-66
2023/01/29 00:25:44;;;;;;;2.05;1.38;;;22.00;50.20;;;;;;5019498;28;20108;-67
2023/01/29 00:28:10;;;;;;;3.00;1.50;;;22.10;50.20;;;;;;5015159;28;20152;-68
2023/01/29 00:30:36;;;;;;;2.10;1.30;;;22.10;50.20;;;;;;5018632;28;20381;-67
2023/01/29 00:33:02;;;;;;;3.15;1.80;;;22.10;50.70;;;;;;5020598;28;20029;-67
2023/01/29 00:35:28;;;;;;;2.70;1.45;;;22.10;50.20;;;;;;5017268;28;20026;-67
2023/01/29 00:37:54;;;;;;;2.55;1.75;;;22.00;50.10;;;;;;5027461;28;20358;-67
2023/01/29 00:40:21;;;;;;;2.33;1.50;;;22.10;50.10;;;;;;5018582;28;20397;-67
2023/01/29 00:45:32;;;;;;;2.20;1.38;;;22.00;50.10;;;;;;5015914;28;20414;-67
2023/01/29 00:47:58;;;;;;;2.33;1.52;;;22.00;50.10;;;;;;5014252;28;20029;-67
2023/01/29 00:50:23;;;;;;;1.77;1.23;;;22.00;50.00;;;;;;5016759;28;20021;-68
2023/01/29 00:52:50;;;;;;;2.88;1.60;;;22.00;50.00;;;;;;5018532;28;20025;-68
2023/01/29 00:55:16;;;;;;;2.40;1.40;;;22.00;50.00;;;;;;5017390;28;20026;-66
2023/01/29 00:57:42;;;;;;;2.08;1.45;;;22.00;50.00;;;;;;5019934;28;20033;-67
2023/01/29 01:00:11;;;;;;;3.00;1.45;;;22.00;49.90;;;;;;5018440;28;20030;-67
2023/01/29 01:05:21;;;;;;;2.47;1.60;;;22.00;49.90;;;;;;5020710;28;20059;-67
2023/01/29 01:07:52;;;;;;;2.10;1.35;;;22.00;49.90;;;;;;5016314;28;20490;-67
2023/01/29 01:10:44;;;;;;;2.65;1.55;;;22.00;49.90;;;;;;5027370;28;20686;-67
2023/01/29 01:13:09;;;;;;;3.05;1.50;;;22.00;49.90;;;;;;5024633;28;20118;-67
2023/01/29 01:15:38;;;;;;;2.22;1.20;;;22.00;49.80;;;;;;5018650;28;20057;-66
2023/01/29 01:18:04;;;;;;;2.40;1.52;;;22.00;49.80;;;;;;5021035;28;20053;-66
2023/01/29 01:20:33;;;;;;;2.47;1.45;;;22.00;49.80;;;;;;5017884;28;20039;-66
2023/01/29 01:22:58;;;;;;;2.10;1.40;;;22.00;50.30;;;;;;5017874;28;20503;-70
2023/01/29 01:25:26;;;;;;;2.30;1.40;;;22.00;49.80;;;;;;5018210;28;20046;-66
2023/01/29 01:27:52;;;;;;;2.47;1.52;;;22.00;49.80;;;;;;5017546;28;20034;-69
2023/01/29 01:30:18;;;;;;;2.03;1.20;;;22.00;49.80;;;;;;5023325;28;20025;-66
2023/01/29 01:32:44;;;;;;;2.00;1.25;;;21.90;50.40;;;;;;5019387;28;20032;-67
2023/01/29 01:35:11;;;;;;;2.88;1.33;;;21.90;49.90;;;;;;5025210;28;20071;-66
2023/01/29 01:37:37;;;;;;;1.65;1.08;;;21.90;49.80;;;;;;5035518;28;20022;-66
2023/01/29 01:40:16;;;;;;;1.50;1.20;;;21.90;49.80;;;;;;5017223;28;20433;-66
2023/01/29 01:42:49;;;;;;;2.13;1.30;;;21.90;49.80;;;;;;5023665;28;20500;-66
2023/01/29 01:45:19;;;;;;;1.80;1.20;;;21.80;49.80;;;;;;5021747;28;20030;-66
2023/01/29 01:47:50;;;;;;;1.88;1.27;;;21.80;49.90;;;;;;5024214;28;20333;-67
2023/01/29 01:50:28;;;;;;;1.77;1.20;;;21.80;49.90;;;;;;5024354;28;20450;-66
2023/01/29 01:52:59;;;;;;;1.52;1.10;;;21.80;49.90;;;;;;5023943;28;20536;-66
2023/01/29 01:55:27;;;;;;;1.67;1.10;;;21.80;49.90;;;;;;5021097;28;20032;-66
2023/01/29 01:58:01;;;;;;;1.60;1.10;;;21.70;49.80;;;;;;5024360;28;20519;-67
2023/01/29 02:00:27;;;;;;;3.45;1.30;;;21.70;49.90;;;;;;5018922;28;20049;-66
2023/01/29 02:11:41;;;;;;;1.77;1.25;;;21.60;49.90;;;;;;5021515;28;20053;-67
2023/01/29 02:14:07;;;;;;;1.83;1.23;;;21.60;50.00;;;;;;5022989;28;20841;-67
2023/01/29 02:16:34;;;;;;;1.80;1.10;;;21.60;50.00;;;;;;5020439;28;20452;-67
2023/01/29 02:19:01;;;;;;;2.17;1.25;;;21.60;50.00;;;;;;5019754;28;20436;-66
2023/01/29 02:21:41;;;;;;;2.28;1.30;;;21.50;50.10;;;;;;5028015;28;20038;-66
2023/01/29 02:24:37;;;;;;;1.52;1.00;;;21.50;50.00;;;;;;5022701;28;20139;-66
2023/01/29 02:27:18;;;;;;;1.98;1.20;;;21.50;50.10;;;;;;5021749;28;20507;-66
2023/01/29 02:30:01;;;;;;;2.03;1.20;;;21.40;50.10;;;;;;5022868;28;20029;-66
2023/01/29 02:32:40;;;;;;;1.40;1.00;;;21.40;50.10;;;;;;5022640;28;20033;-66
2023/01/29 02:35:28;;;;;;;1.95;1.10;;;21.40;50.20;;;;;;5022525;28;20042;-66
2023/01/29 02:38:06;;;;;;;1.70;1.10;;;21.40;50.20;;;;;;5021337;28;20021;-66
2023/01/29 02:40:56;;;;;;;1.58;0.93;;;21.30;50.20;;;;;;5019598;28;20029;-66
2023/01/29 02:43:44;;;;;;;1.80;1.10;;;21.30;50.30;;;;;;5019585;28;20025;-67
2023/01/29 02:46:26;;;;;;;1.52;1.00;;;21.30;50.30;;;;;;5021753;28;20029;-66
2023/01/29 02:49:07;;;;;;;1.80;1.00;;;21.30;50.30;;;;;;5024837;28;20057;-66
2023/01/29 02:51:48;;;;;;;1.88;1.10;;;21.20;50.30;;;;;;5024550;28;20033;-67
2023/01/29 02:54:14;;;;;;;2.10;1.17;;;21.20;50.40;;;;;;5017786;28;20164;-66
2023/01/29 02:56:52;;;;;;;1.10;0.82;;;21.20;50.30;;;;;;5023784;28;20483;-66
2023/01/29 02:59:49;;;;;;;1.42;1.10;;;21.20;50.40;;;;;;5017957;28;20025;-66
2023/01/29 03:02:20;;;;;;;1.83;1.10;;;21.10;50.40;;;;;;5017808;28;20026;-66
2023/01/29 03:04:53;;;;;;;1.45;1.00;;;21.10;50.50;;;;;;5020892;28;20087;-67
2023/01/29 03:07:43;;;;;;;1.80;1.00;;;21.10;50.50;;;;;;5028253;28;20029;-66
2023/01/29 03:10:23;;;;;;;1.90;1.10;;;21.10;50.60;;;;;;5021722;28;20034;-67
2023/01/29 03:12:56;;;;;;;1.50;0.90;;;21.00;50.50;;;;;;5020070;28;20030;-67
2023/01/29 03:15:30;;;;;;;1.70;1.10;;;21.00;51.10;;;;;;5023059;28;20421;-66
2023/01/29 03:18:13;;;;;;;1.42;0.90;;;21.00;50.60;;;;;;5020301;28;20538;-66
2023/01/29 03:20:47;;;;;;;1.50;0.93;;;21.00;50.70;;;;;;5020772;28;20481;-67
2023/01/29 03:32:04;;;;;;;1.13;0.88;;;20.90;50.80;;;;;;5017000;28;20040;-66
2023/01/29 03:34:37;;;;;;;1.17;0.90;;;20.90;50.80;;;;;;5018177;28;20531;-66
2023/01/29 03:37:17;;;;;;;1.88;1.05;;;20.80;50.90;;;;;;5021422;28;20453;-66
2023/01/29 03:39:43;;;;;;;1.38;0.90;;;20.80;50.90;;;;;;5017940;28;20033;-67
2023/01/29 03:42:19;;;;;;;1.30;1.00;;;20.80;50.90;;;;;;5022275;28;20339;-66
2023/01/29 03:44:48;;;;;;;1.00;0.80;;;20.80;50.90;;;;;;5021999;28;20061;-66
2023/01/29 03:47:22;;;;;;;1.67;1.00;;;20.80;51.00;;;;;;5018054;28;20034;-66
2023/01/29 03:49:58;;;;;;;0.95;0.80;;;20.80;51.00;;;;;;5020744;28;20056;-67
2023/01/29 03:52:26;;;;;;;1.40;1.00;;;20.70;50.90;;;;;;5018552;28;20053;-66
2023/01/29 03:55:15;;;;;;;1.20;0.90;;;20.70;51.00;;;;;;5020284;28;20034;-66
2023/01/29 03:57:59;;;;;;;1.40;0.90;;;20.70;51.00;;;;;;5022215;28;20026;-67
2023/01/29 04:00:31;;;;;;;1.52;0.90;;;20.70;51.00;;;;;;5021406;28;20029;-68
2023/01/29 04:03:14;;;;;;;1.48;1.00;;;20.60;51.00;;;;;;5021644;28;20069;-66
2023/01/29 04:06:08;;;;;;;1.33;0.88;;;20.70;51.10;;;;;;5020301;28;20108;-67
2023/01/29 04:08:39;;;;;;;1.20;0.80;;;20.60;51.00;;;;;;5010908;28;20048;-66
2023/01/29 04:11:10;;;;;;;1.88;1.15;;;20.60;51.10;;;;;;5019086;28;20116;-66
2023/01/29 04:13:37;;;;;;;1.20;0.90;;;20.60;51.10;;;;;;5018181;28;20508;-66
2023/01/29 04:16:07;;;;;;;1.17;0.80;;;20.60;51.10;;;;;;5019988;28;20990;-66
2023/01/29 04:18:32;;;;;;;;;;;20.60;51.10;;;;;;5019189;28;20021;-67
2023/01/29 04:21:00;;;;;;;1.48;0.95;;;20.60;51.10;;;;;;5020698;28;19916;-67
2023/01/29 04:23:26;;;;;;;0.90;0.80;;;20.60;51.10;;;;;;5015624;28;20141;-66
2023/01/29 04:26:14;;;;;;;1.42;1.00;;;20.60;51.10;;;;;;5066333;22;20189;-66
2023/01/29 04:29:22;;;;;;;1.25;0.80;;;20.60;51.10;;;;;;5057437;28;20041;-66
2023/01/29 04:32:03;;;;;;;0.98;0.80;;;20.60;51.10;;;;;;5050897;28;20026;-66
2023/01/29 04:34:42;;;;;;;1.02;0.73;;;20.60;51.20;;;;;;5055669;28;20477;-67
2023/01/29 04:37:10;;;;;;;1.20;0.80;;;20.50;51.10;;;;;;5049509;28;20052;-66
2023/01/29 04:39:42;;;;;;;1.10;0.80;;;20.50;51.20;;;;;;5055634;28;20203;-66
2023/01/29 04:42:20;;;;;;;0.90;0.70;;;20.50;51.30;;;;;;5054003;28;20488;-66
2023/01/29 04:45:16;;;;;;;0.98;0.65;;;20.50;51.20;;;;;;5054075;28;20052;-66
2023/01/29 04:47:57;;;;;;;1.40;0.88;;;20.50;51.20;;;;;;5053866;28;20017;-66
2023/01/29 04:50:36;;;;;;;0.85;0.80;;;20.50;51.70;;;;;;5057852;28;20038;-66
2023/01/29 04:53:04;;;;;;;;;;;20.50;51.20;;;;;;5056252;28;20083;-66
2023/01/29 04:55:53;;;;;;;0.80;0.77;;;20.50;51.20;;;;;;5055749;28;19995;-66
2023/01/29 04:58:42;;;;;;;0.70;0.70;;;20.50;51.20;;;;;;5054398;28;20110;-66
2023/01/29 05:01:13;;;;;;;1.42;0.70;;;20.50;51.20;;;;;;5053550;28;20071;-66
2023/01/29 05:03:42;;;;;;;0.82;0.70;;;20.50;51.20;;;;;;5055732;28;20040;-66
2023/01/29 05:06:09;;;;;;;0.90;0.70;;;20.50;51.20;;;;;;5057692;28;20096;-66
2023/01/29 05:08:37;;;;;;;1.27;0.80;;;20.50;51.30;;;;;;5058303;28;20029;-66
2023/01/29 05:11:04;;;;;;;1.25;0.88;;;20.40;51.20;;;;;;5050419;28;20500;-66
2023/01/29 05:13:32;;;;;;;0.75;0.70;;;20.40;51.30;;;;;;5052298;28;20108;-66
2023/01/29 05:16:18;;;;;;;1.20;0.70;;;20.40;51.30;;;;;;5049930;28;20024;-67
2023/01/29 05:18:45;;;;;;;0.93;0.73;;;20.40;51.30;;;;;;5052774;28;20034;-66
2023/01/29 05:21:10;;;;;;;1.10;0.80;;;20.40;51.30;;;;;;5051805;28;20090;-66
2023/01/29 05:23:36;;;;;;;0.75;0.70;;;20.40;51.40;;;;;;5051397;28;20388;-66
2023/01/29 05:26:03;;;;;;;0.70;0.70;;;20.40;51.40;;;;;;5047404;28;20049;-66
2023/01/29 05:28:29;;;;;;;1.05;0.70;;;20.40;51.40;;;;;;5047966;28;20017;-66
2023/01/29 05:30:55;;;;;;;1.08;0.80;;;20.30;51.30;;;;;;5052747;28;20234;-66
2023/01/29 05:33:25;;;;;;;1.17;0.73;;;20.40;51.40;;;;;;5047711;28;20017;-66
2023/01/29 05:35:51;;;;;;;1.00;0.73;;;20.40;51.40;;;;;;5044821;28;20030;-66
2023/01/29 05:38:18;;;;;;;1.02;0.73;;;20.40;51.40;;;;;;5038913;28;20391;-66
2023/01/29 05:40:43;;;;;;;1.20;0.75;;;20.40;51.40;;;;;;5035305;28;20029;-66
2023/01/29 05:43:21;;;;;;;1.08;0.70;;;20.40;51.50;;;;;;5039630;28;20026;-66
2023/01/29 05:45:57;;;;;;;1.30;0.82;;;20.30;51.40;;;;;;5038879;28;20120;-66
2023/01/29 05:48:23;;;;;;;1.00;0.77;;;20.40;51.50;;;;;;5040719;28;20480;-66
2023/01/29 05:50:49;;;;;;;0.90;0.70;;;20.30;51.50;;;;;;5033195;28;20024;-66
2023/01/29 05:53:15;;;;;;;0.73;0.60;;;20.30;51.50;;;;;;5041234;28;20028;-66
2023/01/29 05:55:47;;;;;;;1.23;0.75;;;20.30;51.50;;;;;;5043941;28;20033;-66
2023/01/29 05:58:13;;;;;;;0.98;0.70;;;20.30;51.50;;;;;;5039128;28;20029;-66
2023/01/29 06:00:39;;;;;;;0.70;0.70;;;20.30;51.50;;;;;;5035828;28;20033;-66
2023/01/29 06:03:05;;;;;;;0.75;0.70;;;20.30;51.50;;;;;;5046460;28;20035;-65
2023/01/29 06:05:31;;;;;;;0.95;0.70;;;20.30;51.50;;;;;;5040611;28;20033;-65
2023/01/29 06:07:56;;;;;;;1.42;0.63;;;20.30;51.50;;;;;;5036471;28;20083;-65
2023/01/29 06:10:22;;;;;;;0.88;0.70;;;20.30;51.50;;;;;;5035324;28;20029;-66
2023/01/29 06:12:47;;;;;;;0.57;0.57;;;20.30;51.50;;;;;;5037100;28;20029;-67
2023/01/29 06:15:18;;;;;;;0.55;0.55;;;20.30;51.50;;;;;;5037294;28;20537;-66
2023/01/29 06:17:44;;;;;;;0.63;0.60;;;20.30;51.50;;;;;;5039403;28;20044;-66
2023/01/29 06:20:10;;;;;;;1.30;0.80;;;20.30;51.50;;;;;;5037665;28;20038;-66
2023/01/29 06:22:35;;;;;;;1.40;0.90;;;20.30;51.50;;;;;;5031808;28;20397;-66
2023/01/29 06:25:01;;;;;;;0.70;0.68;;;20.20;51.50;;;;;;5030976;28;20029;-66
2023/01/29 06:27:27;;;;;;;0.88;0.60;;;20.30;51.50;;;;;;5039135;28;20024;-66
2023/01/29 06:29:52;;;;;;;0.93;0.70;;;20.30;51.60;;;;;;5030736;28;20460;-66
2023/01/29 06:32:18;;;;;;;1.27;0.90;;;20.20;52.00;;;;;;5033525;28;20026;-66
2023/01/29 06:34:43;;;;;;;0.90;0.60;;;20.20;51.60;;;;;;5039437;28;20071;-66
2023/01/29 06:37:09;;;;;;;0.50;0.50;;;20.20;51.50;;;;;;5037973;28;20113;-66
2023/01/29 06:39:35;;;;;;;0.80;0.80;;;20.20;51.50;;;;;;5038054;28;20064;-66
2023/01/29 06:42:00;;;;;;;0.90;0.70;;;20.20;51.50;;;;;;5039761;28;20030;-66
2023/01/29 06:44:26;;;;;;;1.10;0.73;;;20.20;51.60;;;;;;5031079;28;20419;-65
2023/01/29 06:46:51;;;;;;;1.63;0.82;;;20.20;51.60;;;;;;5031652;28;20095;-66
2023/01/29 06:49:17;;;;;;;0.70;0.70;;;20.20;51.60;;;;;;5022515;28;20021;-66
2023/01/29 06:51:43;;;;;;;1.48;1.00;;;20.20;51.60;;;;;;5032106;28;20514;-66
2023/01/29 06:54:09;;;;;;;0.73;0.60;;;20.20;51.60;;;;;;5041765;28;20030;-66
2023/01/29 06:56:35;;;;;;;0.85;0.70;;;20.20;51.60;;;;;;5037852;28;20029;-66
2023/01/29 06:59:00;;;;;;;0.77;0.60;;;20.20;51.60;;;;;;5037424;28;20198;-66
2023/01/29 07:01:26;;;;;;;0.60;0.60;;;20.10;51.60;;;;;;5030592;28;20491;-66
2023/01/29 07:03:52;;;;;;;0.65;0.60;;;20.10;51.60;;;;;;5035357;28;20124;-66
2023/01/29 07:06:18;;;;;;;0.60;0.60;;;20.20;51.60;;;;;;5036650;28;20389;-64
2023/01/29 07:08:44;;;;;;;0.80;0.65;;;20.10;51.60;;;;;;5039270;28;20013;-66
2023/01/29 07:11:10;;;;;;;0.90;0.70;;;20.10;51.60;;;;;;5028660;28;20035;-67
2023/01/29 07:13:36;;;;;;;1.27;0.90;;;20.10;51.60;;;;;;5025626;28;20033;-67
2023/01/29 07:16:03;;;;;;;0.85;0.63;;;20.10;51.70;;;;;;5034932;28;20044;-66
2023/01/29 07:18:30;;;;;;;0.80;0.70;;;20.10;51.70;;;;;;5037877;28;20033;-67
2023/01/29 07:20:56;;;;;;;0.98;0.75;;;20.10;51.80;;;;;;5039444;28;20492;-67
2023/01/29 07:23:22;;;;;;;0.70;0.70;;;20.10;51.80;;;;;;5036995;28;20121;-67
2023/01/29 07:25:50;;;;;;;0.75;0.70;;;20.10;51.80;;;;;;5028690;28;20124;-66
2023/01/29 07:28:17;;;;;;;0.85;0.70;;;20.00;51.80;;;;;;5037502;28;20026;-67
2023/01/29 07:30:42;;;;;;;0.82;0.60;;;20.00;51.80;;;;;;5036589;28;20041;-67
2023/01/29 07:33:09;;;;;;;0.80;0.70;;;20.00;51.80;;;;;;5031125;28;20030;-67
2023/01/29 07:35:39;;;;;;;0.55;0.55;;;20.00;51.90;;;;;;5028047;28;20033;-67
2023/01/29 07:38:06;;;;;;;0.85;0.60;;;20.00;51.90;;;;;;5035490;28;20025;-66
2023/01/29 07:40:32;;;;;;;0.70;0.60;;;20.00;51.90;;;;;;5035394;28;20025;-67
2023/01/29 07:42:58;;;;;;;1.15;0.90;;;20.00;51.90;;;;;;5032056;28;20374;-67
2023/01/29 07:45:24;;;;;;;0.63;0.63;;;20.00;51.90;;;;;;5037435;28;20029;-67
2023/01/29 07:47:54;;;;;;;0.93;0.70;;;20.00;51.90;;;;;;5038379;28;20033;-67
2023/01/29 07:50:24;;;;;;;0.73;0.70;;;20.00;51.90;;;;;;5039666;28;20025;-67
2023/01/29 07:52:50;;;;;;;0.88;0.63;;;20.00;51.90;;;;;;5030203;28;20481;-67
2023/01/29 07:55:21;;;;;;;0.70;0.60;;;20.00;51.90;;;;;;5032723;28;20140;-67
2023/01/29 07:57:53;;;;;;;1.10;0.70;;;20.00;51.90;;;;;;5036919;28;20025;-67
2023/01/29 08:00:19;;;;;;;0.82;0.60;;;20.00;51.90;;;;;;5027182;28;20048;-67
2023/01/29 08:02:45;;;;;;;0.60;0.60;;;20.00;51.90;;;;;;5032295;28;20021;-66
2023/01/29 08:05:10;;;;;;;0.88;0.70;;;20.00;52.00;;;;;;5040022;28;20024;-67
2023/01/29 08:07:36;;;;;;;0.50;0.50;;;20.00;52.00;;;;;;5034467;28;20378;-67
2023/01/29 08:10:02;;;;;;;0.63;0.55;;;20.00;52.00;;;;;;5032306;28;20048;-67
2023/01/29 08:12:27;;;;;;;0.60;0.60;;;20.00;52.00;;;;;;5031074;28;20025;-67
2023/01/29 08:14:53;;;;;;;0.70;0.60;;;20.00;52.00;;;;;;5037711;28;20057;-67
2023/01/29 08:17:18;;;;;;;0.50;0.50;;;20.00;52.00;;;;;;5041273;28;20051;-67
2023/01/29 08:19:44;;;;;;;1.00;0.63;;;20.00;52.00;;;;;;5039617;28;20041;-67
2023/01/29 08:22:10;;;;;;;0.70;0.63;;;20.00;52.00;;;;;;5034877;28;20350;-67
2023/01/29 08:24:35;;;;;;;0.93;0.70;;;20.00;52.00;;;;;;5037978;28;20151;-67
2023/01/29 08:27:01;;;;;;;0.90;0.60;;;20.00;52.00;;;;;;5037736;28;20018;-67
2023/01/29 08:29:26;;;;;;;0.55;0.52;;;20.00;52.00;;;;;;5032954;28;20025;-67
2023/01/29 08:31:52;;;;;;;1.10;0.70;;;20.00;52.00;;;;;;5033363;28;20032;-67
2023/01/29 08:34:18;;;;;;;0.60;0.60;;;20.00;52.00;;;;;;5033630;28;20761;-67
2023/01/29 08:36:43;;;;;;;0.85;0.70;;;20.00;51.90;;;;;;5036714;28;20167;-67
2023/01/29 08:39:09;;;;;;;1.27;0.80;;;20.00;51.90;;;;;;5033263;28;20041;-67
2023/01/29 08:41:35;;;;;;;0.55;0.55;;;19.90;51.90;;;;;;5033135;28;20025;-67
2023/01/29 08:44:03;;;;;;;0.50;0.50;;;19.90;51.90;;;;;;5033457;28;20082;-67
2023/01/29 08:46:29;;;;;;;0.50;0.50;;;19.90;51.90;;;;;;5040395;28;20032;-67
2023/01/29 08:48:54;;;;;;;0.77;0.60;;;19.90;51.90;;;;;;5034447;28;20083;-67
2023/01/29 08:51:21;;;;;;;0.80;0.65;;;19.90;51.90;;;;;;5032855;28;20129;-67
2023/01/29 08:53:49;;;;;;;0.55;0.55;;;19.90;51.90;;;;;;5029874;28;20041;-67
2023/01/29 08:56:15;;;;;;;2.13;0.70;;;19.90;51.90;;;;;;5034947;28;20033;-67
2023/01/29 08:58:41;;;;;;;0.70;0.57;;;19.90;51.90;;;;;;5028610;28;20033;-66
2023/01/29 09:01:09;;;;;;;0.93;0.68;;;19.90;51.90;;;;;;5033471;28;20061;-67
2023/01/29 09:03:34;;;;;;;0.73;0.60;;;19.90;51.90;;;;;;5037929;28;20076;-67
2023/01/29 09:06:00;;;;;;;0.70;0.60;;;19.90;51.90;;;;;;5034152;28;20469;-67
2023/01/29 09:08:26;;;;;;;0.77;0.60;;;19.90;52.00;;;;;;5036029;28;20033;-67
2023/01/29 09:10:51;;;;;;;0.60;0.60;;;19.90;52.00;;;;;;5035227;28;20506;-66
2023/01/29 09:13:17;;;;;;;0.90;0.70;;;19.90;52.00;;;;;;5037385;28;20021;-67
2023/01/29 09:15:43;;;;;;;0.60;0.57;;;19.90;51.90;;;;;;5037583;28;20476;-67
2023/01/29 09:18:08;;;;;;;0.60;0.60;;;19.90;52.00;;;;;;5042390;28;20029;-67
2023/01/29 09:20:36;;;;;;;0.70;0.52;;;19.90;52.00;;;;;;5037859;28;20108;-67
2023/01/29 09:23:06;;;;;;;0.55;0.50;;;19.90;52.00;;;;;;5041714;28;20483;-66
2023/01/29 09:25:32;;;;;;;1.08;0.60;;;19.90;52.00;;;;;;5039016;28;20191;-67
2023/01/29 09:27:58;;;;;;;0.40;0.40;;;19.90;52.00;;;;;;5037587;28;20548;-67
2023/01/29 09:30:23;;;;;;;0.60;0.60;;;19.80;51.90;;;;;;5033604;28;20118;-67
2023/01/29 09:32:49;;;;;;;0.50;0.50;;;19.80;51.90;;;;;;5035637;28;20025;-66
2023/01/29 09:35:14;;;;;;;0.70;0.60;;;19.90;51.90;;;;;;5044081;28;20063;-67
2023/01/29 09:37:40;;;;;;;0.60;0.60;;;19.80;51.90;;;;;;5041176;28;20021;-67
2023/01/29 09:40:23;;;;;;;0.73;0.60;;;19.80;51.90;;;;;;5035944;28;20083;-67
2023/01/29 09:43:01;;;;;;;0.60;0.60;;;19.80;51.90;;;;;;5038789;28;20528;-67
2023/01/29 09:45:28;;;;;;;0.75;0.68;;;19.80;51.90;;;;;;5043458;28;20032;-66
2023/01/29 09:48:00;;;;;;;0.75;0.55;;;19.80;51.90;;;;;;5033819;28;20068;-67
2023/01/29 09:50:39;;;;;;;0.95;0.63;;;19.80;51.90;;;;;;5034822;28;20017;-66
2023/01/29 09:53:20;;;;;;;0.80;0.60;;;19.90;51.90;;;;;;5037194;28;20464;-66
2023/01/29 09:55:51;;;;;;;0.52;0.50;;;19.80;51.80;;;;;;5036155;28;20033;-66
2023/01/29 09:58:32;;;;;;;0.60;0.57;;;19.80;51.80;;;;;;5040036;28;20056;-67
2023/01/29 10:01:00;;;;;;;1.17;0.60;;;19.80;51.80;;;;;;5040582;28;20436;-67
2023/01/29 10:03:36;;;;;;;0.90;0.60;;;19.80;51.80;;;;;;5037963;28;20029;-67
2023/01/29 10:06:32;;;;;;;0.63;0.63;;;19.80;51.80;;;;;;5039481;28;20036;-67
2023/01/29 10:09:03;;;;;;;0.60;0.60;;;19.80;51.80;;;;;;5035957;28;20120;-67
2023/01/29 10:11:48;;;;;;;0.82;0.80;;;19.80;51.90;;;;;;5035008;28;20017;-67
2023/01/29 10:14:14;;;;;;;0.98;0.70;;;19.80;51.80;;;;;;5037174;28;20407;-67
2023/01/29 10:16:56;;;;;;;0.82;0.60;;;19.80;51.80;;;;;;5036526;28;20025;-66
2023/01/29 10:20:01;;;;;;;0.70;0.70;;;19.80;51.90;;;;;;5036154;28;20389;-67
2023/01/29 10:22:50;;;;;;;0.93;0.70;;;19.80;51.80;;;;;;5035868;28;20128;-67
2023/01/29 10:25:19;;;;;;;0.70;0.70;;;19.80;51.90;;;;;;5035315;28;20132;-67
2023/01/29 10:27:52;;;;;;;0.60;0.60;;;19.80;51.90;;;;;;5031487;28;20031;-66
2023/01/29 10:30:24;;;;;;;0.75;0.70;;;19.80;51.90;;;;;;5033060;28;20026;-67
2023/01/29 10:32:51;;;;;;;0.82;0.70;;;19.80;51.90;;;;;;5034672;28;20017;-67
2023/01/29 10:35:29;;;;;;;0.68;0.65;;;19.80;51.90;;;;;;5034835;28;20087;-67
2023/01/29 10:38:01;;;;;;;0.73;0.60;;;19.80;51.90;;;;;;5038773;28;20034;-67
2023/01/29 10:40:42;;;;;;;1.02;0.60;;;19.80;51.90;;;;;;5034969;28;20343;-67
2023/01/29 10:43:21;;;;;;;0.55;0.55;;;19.80;51.90;;;;;;5032499;28;20041;-67
2023/01/29 10:46:04;;;;;;;0.90;0.70;;;19.80;51.90;;;;;;5034869;28;20025;-67
2023/01/29 10:48:48;;;;;;;0.90;0.65;;;19.70;51.80;;;;;;5038049;28;20437;-67
2023/01/29 10:51:42;;;;;;;0.70;0.70;;;19.70;51.90;;;;;;5035205;28;20028;-67
2023/01/29 10:54:46;;;;;;;0.60;0.60;;;19.70;51.90;;;;;;5025250;28;20040;-67
2023/01/29 10:57:25;;;;;;;0.55;0.55;;;19.70;51.90;;;;;;5034550;28;20060;-67
2023/01/29 11:00:16;;;;;;;0.60;0.60;;;19.70;51.90;;;;;;5041391;28;20132;-67
2023/01/29 11:02:47;;;;;;;0.80;0.60;;;19.70;51.90;;;;;;5039479;28;20407;-66
2023/01/29 11:05:21;;;;;;;1.00;0.70;;;19.70;51.90;;;;;;5031850;28;20036;-66
2023/01/29 11:07:54;;;;;;;0.60;0.60;;;19.70;51.90;;;;;;5035195;28;20444;-67
2023/01/29 11:10:22;;;;;;;0.65;0.65;;;19.70;52.00;;;;;;5036293;28;20492;-67
2023/01/29 11:12:49;;;;;;;0.70;0.60;;;19.70;52.00;;;;;;5030893;28;20485;-66
2023/01/29 11:15:33;;;;;;;0.70;0.70;;;19.70;52.00;;;;;;5031643;28;20120;-66
2023/01/29 11:18:03;;;;;;;0.60;0.60;;;19.70;52.00;;;;;;5026446;28;20516;-66
2023/01/29 11:20:30;;;;;;;0.73;0.73;;;19.70;52.00;;;;;;5033949;28;20044;-66
2023/01/29 11:22:58;;;;;;;0.90;0.70;;;19.60;51.90;;;;;;5037571;28;20346;-67
2023/01/29 11:25:24;;;;;;;0.70;0.70;;;19.60;51.90;;;;;;5037505;28;20057;-67
2023/01/29 11:27:55;;;;;;;0.80;0.70;;;19.60;52.00;;;;;;5034054;28;20084;-67
2023/01/29 11:30:29;;;;;;;1.65;0.75;;;19.60;52.50;;;;;;5028916;28;20111;-66
2023/01/29 11:33:19;;;;;;;0.60;0.60;;;19.60;52.00;;;;;;5041602;28;20028;-66
2023/01/29 11:35:45;;;;;;;0.73;0.70;;;19.60;52.00;;;;;;5035105;28;20368;-66
2023/01/29 11:38:29;;;;;;;0.82;0.60;;;19.60;52.00;;;;;;5031835;28;20492;-67
2023/01/29 11:41:06;;;;;;;0.60;0.60;;;19.60;52.00;;;;;;5032734;28;20029;-64
2023/01/29 11:43:32;;;;;;;1.15;0.75;;;19.60;52.00;;;;;;5019631;28;20021;-67
2023/01/29 11:46:11;;;;;;;0.60;0.60;;;19.60;52.00;;;;;;5032889;28;20065;-67
2023/01/29 11:48:44;;;;;;;0.90;0.77;;;19.60;52.10;;;;;;5035625;28;20499;-66
2023/01/29 11:51:20;;;;;;;0.80;0.70;;;19.60;52.10;;;;;;5036882;28;20048;-67
2023/01/29 11:53:51;;;;;;;0.88;0.70;;;19.60;52.10;;;;;;5034374;28;20381;-67
2023/01/29 11:56:30;;;;;;;0.68;0.68;;;19.60;52.10;;;;;;5038978;28;20496;-66
2023/01/29 11:58:57;;;;;;;0.70;0.60;;;19.50;52.00;;;;;;5029743;28;20108;-67
2023/01/29 12:01:43;;;;;;;0.60;0.60;;;19.50;52.10;;;;;;5034104;28;20033;-67
2023/01/29 12:04:19;;;;;;;1.10;0.80;;;19.60;52.10;;;;;;5037810;28;20037;-67
2023/01/29 12:06:47;;;;;;;0.93;0.77;;;19.60;52.10;;;;;;5029339;28;20018;-67
2023/01/29 12:09:21;;;;;;;0.63;0.63;;;19.60;52.10;;;;;;5038358;28;20370;-67
2023/01/29 12:11:46;;;;;;;0.90;0.70;;;19.50;52.10;;;;;;5033428;28;20492;-67
2023/01/29 12:14:32;;;;;;;1.05;0.80;;;19.50;52.10;;;;;;5036299;28;20032;-67
2023/01/29 12:17:11;;;;;;;0.70;0.65;;;19.50;52.10;;;;;;5030230;28;20037;-66
2023/01/29 12:19:41;;;;;;;;;;;19.50;52.10;;;;;;5034099;28;20041;-66
2023/01/29 12:22:37;;;;;;;0.73;0.70;;;19.50;52.10;;;;;;5034952;28;19909;-66
2023/01/29 12:25:10;;;;;;;0.90;0.70;;;19.50;52.10;;;;;;5037771;28;20029;-66
2023/01/29 12:27:45;;;;;;;0.60;0.60;;;19.50;52.10;;;;;;5037666;28;20116;-66
2023/01/29 12:30:59;;;;;;;1.00;0.80;;;19.50;52.20;;;;;;5035956;28;20013;-66
2023/01/29 12:34:00;;;;;;;1.42;0.80;;;19.50;52.20;;;;;;4999633;28;20137;-66
2023/01/29 12:36:37;;;;;;;1.17;0.90;;;19.50;52.10;;;;;;4996065;28;20057;-66
2023/01/29 12:39:03;;;;;;;0.95;0.73;;;19.50;52.10;;;;;;5031199;28;20124;-66
2023/01/29 12:41:44;;;;;;;0.90;0.70;;;19.50;52.10;;;;;;5031809;28;20112;-66
2023/01/29 12:44:19;;;;;;;1.15;0.80;;;19.50;52.10;;;;;;5031839;28;20835;-66
2023/01/29 12:46:51;;;;;;;1.48;0.70;;;19.50;52.10;;;;;;5033452;28;20045;-66
2023/01/29 12:49:33;;;;;;;1.00;0.80;;;19.50;52.20;;;;;;5032480;28;20036;-66
2023/01/29 12:52:05;;;;;;;1.38;0.70;;;19.50;52.20;;;;;;5040778;28;20036;-66
2023/01/29 12:54:45;;;;;;;0.77;0.63;;;19.50;52.20;;;;;;5040528;28;20076;-67
2023/01/29 12:57:38;;;;;;;1.05;0.80;;;19.50;52.20;;;;;;5045269;28;20086;-67
2023/01/29 13:00:13;;;;;;;1.08;0.80;;;19.50;52.20;;;;;;5034023;28;20155;-67
2023/01/29 13:03:02;;;;;;;0.88;0.77;;;19.50;52.20;;;;;;5036050;28;20477;-66
2023/01/29 13:05:40;;;;;;;0.93;0.80;;;19.50;52.20;;;;;;5038012;28;20495;-67
2023/01/29 13:08:21;;;;;;;1.15;0.73;;;19.50;52.20;;;;;;5036777;28;20040;-67
2023/01/29 13:10:51;;;;;;;1.25;0.90;;;19.50;52.20;;;;;;5038792;28;20025;-66
2023/01/29 13:13:43;;;;;;;1.00;0.80;;;19.50;52.20;;;;;;5037311;28;20164;-66
2023/01/29 13:16:14;;;;;;;0.88;0.70;;;19.50;52.20;;;;;;5034617;28;20025;-66
2023/01/29 13:18:56;;;;;;;1.00;0.73;;;19.40;52.10;;;;;;5039119;28;20500;-67
2023/01/29 13:21:26;;;;;;;0.80;0.65;;;19.50;52.20;;;;;;5038940;28;20552;-66
2023/01/29 13:24:14;;;;;;;0.80;0.60;;;19.50;52.20;;;;;;5038963;28;20021;-68
2023/01/29 13:26:43;;;;;;;1.40;0.80;;;19.50;52.20;;;;;;5040766;28;20163;-67
2023/01/29 13:29:23;;;;;;;1.33;0.70;;;19.40;52.10;;;;;;5040729;28;20108;-66
2023/01/29 13:31:51;;;;;;;1.27;0.75;;;19.50;52.20;;;;;;5035114;28;20507;-66
2023/01/29 13:34:27;;;;;;;1.08;0.88;;;19.40;52.10;;;;;;5040000;28;20026;-67
2023/01/29 13:36:56;;;;;;;1.75;0.80;;;19.50;52.20;;;;;;5036639;28;20030;-67